createdAt,value
2022-09-20T00:01:03.243Z,93036.13
2022-09-20T00:02:35.337Z,93031.88
2022-09-20T00:04:08.307Z,93042.97
2022-09-20T00:05:41.044Z,93042.16
2022-09-20T00:07:12.628Z,93039.47
2022-09-20T00:08:44.363Z,93044.22
2022-09-20T00:10:15.968Z,93042.16
2022-09-20T00:11:47.614Z,93036.28
2022-09-20T00:13:19.147Z,93038.50
2022-09-20T00:14:50.873Z,93036.72
2022-09-20T00:16:23.870Z,93037.97
2022-09-20T00:17:55.666Z,93037.66
2022-09-20T00:19:27.840Z,93039.38
2022-09-20T00:20:59.391Z,93034.28
2022-09-20T00:22:31.126Z,93042.66
2022-09-20T00:24:02.878Z,93043.78
2022-09-20T00:25:34.524Z,93039.47
2022-09-20T00:27:06.352Z,93037.78
2022-09-20T00:28:37.952Z,93038.25
2022-09-20T00:30:09.771Z,93053.31
2022-09-20T00:31:43.034Z,93044.44
2022-09-20T00:33:15.065Z,93048.06
2022-09-20T00:35:05.307Z,93049.16
2022-09-20T00:36:36.864Z,93049.94
2022-09-20T00:38:09.095Z,93050.59
2022-09-20T00:39:40.713Z,93052.78
2022-09-20T00:41:12.245Z,93047.84
2022-09-20T00:42:44.021Z,93045.09
2022-09-20T00:44:34.236Z,93047.94
2022-09-20T00:46:06.346Z,93049.66
2022-09-20T00:47:42.594Z,93045.97
2022-09-20T00:49:19.014Z,93053.41
2022-09-20T00:50:55.549Z,93052.53
2022-09-20T00:52:27.297Z,93048.69
2022-09-20T00:53:59.324Z,93055.59
2022-09-20T00:55:30.806Z,93051.41
2022-09-20T01:14:14.117Z,93051.34
2022-09-20T01:15:45.933Z,93052.81
2022-09-20T01:17:19.442Z,93057.00
2022-09-20T01:18:51.075Z,93055.00
2022-09-20T01:20:23.742Z,93057.09
2022-09-20T01:21:55.312Z,93062.38
2022-09-20T01:23:45.747Z,93063.63
2022-09-20T01:25:23.869Z,93064.34
2022-09-20T01:27:00.653Z,93062.63
2022-09-20T01:28:32.197Z,93073.78
2022-09-20T01:30:05.432Z,93066.50
2022-09-20T01:31:37.664Z,93072.69
2022-09-20T01:33:24.385Z,93075.88
2022-09-20T01:34:56.853Z,93079.81
2022-09-20T01:36:43.406Z,93079.81
2022-09-20T01:38:18.148Z,93073.19
2022-09-20T01:39:54.810Z,93077.41
2022-09-20T01:41:45.161Z,93066.22
2022-09-20T01:43:25.544Z,93063.31
2022-09-20T01:45:24.028Z,93075.47
2022-09-20T01:46:59.957Z,93065.81
2022-09-20T01:48:35.978Z,93066.09
2022-09-20T01:50:22.629Z,93065.13
2022-09-20T01:52:09.426Z,93064.94
2022-09-20T01:53:43.737Z,93058.38
2022-09-20T01:55:24.638Z,93055.78
2022-09-20T01:57:02.062Z,93059.56
2022-09-20T01:58:44.086Z,93056.38
2022-09-20T02:00:16.139Z,93059.47
2022-09-20T02:01:47.666Z,93060.38
2022-09-20T02:03:31.807Z,93055.13
2022-09-20T02:05:18.190Z,93054.41
2022-09-20T02:07:08.560Z,93056.41
2022-09-20T02:08:58.899Z,93058.91
2022-09-20T02:10:32.593Z,93063.97
2022-09-20T02:12:19.686Z,93065.56
2022-09-20T02:13:54.245Z,93063.69
2022-09-20T02:15:31.593Z,93067.16
2022-09-20T02:17:06.657Z,93072.53
2022-09-20T02:18:44.277Z,93065.06
2022-09-20T02:20:34.793Z,93064.56
2022-09-20T02:22:13.655Z,93067.25
2022-09-20T02:24:00.810Z,93057.91
2022-09-20T02:26:07.568Z,93061.69
2022-09-20T02:27:56.884Z,93058.81
2022-09-20T02:29:33.750Z,93051.84
2022-09-20T02:31:24.082Z,93051.94
2022-09-20T02:33:01.807Z,93048.25
2022-09-20T02:34:42.225Z,93053.41
2022-09-20T02:36:26.063Z,93057.97
2022-09-20T02:38:02.001Z,93060.66
2022-09-20T02:39:37.004Z,93062.25
2022-09-20T02:41:27.226Z,93060.97
2022-09-20T02:43:19.056Z,93061.28
2022-09-20T02:45:09.372Z,93064.56
2022-09-20T02:46:54.864Z,93061.94
2022-09-20T02:48:28.946Z,93055.78
2022-09-20T02:50:06.626Z,93064.13
2022-09-20T02:51:41.187Z,93057.19
2022-09-20T02:53:18.120Z,93065.25
2022-09-20T02:55:10.706Z,93056.41
2022-09-20T02:57:20.442Z,93063.16
2022-09-20T02:59:06.203Z,93066.91
2022-09-20T03:00:43.173Z,93056.78
2022-09-20T03:02:33.486Z,93058.16
2022-09-20T03:04:07.963Z,93051.00
2022-09-20T03:05:42.777Z,93050.00
2022-09-20T03:07:33.027Z,93052.78
2022-09-20T03:09:04.611Z,93057.94
2022-09-20T03:10:50.192Z,93056.91
2022-09-20T03:12:27.527Z,93063.94
2022-09-20T03:14:11.183Z,93060.94
2022-09-20T03:16:02.943Z,93064.75
2022-09-20T03:17:42.551Z,93062.72
2022-09-20T03:19:35.507Z,93066.00
2022-09-20T03:21:19.252Z,93077.81
2022-09-20T03:23:09.547Z,93071.94
2022-09-20T03:24:47.166Z,93068.53
2022-09-20T03:26:42.530Z,93078.47
2022-09-20T03:28:33.112Z,93076.06
2022-09-20T03:30:24.475Z,93079.63
2022-09-20T03:32:19.413Z,93080.78
2022-09-20T03:33:51.020Z,93074.94
2022-09-20T03:35:37.972Z,93073.88
2022-09-20T03:37:09.975Z,93075.53
2022-09-20T03:38:52.302Z,93074.50
2022-09-20T03:40:46.421Z,93069.22
2022-09-20T03:42:20.962Z,93082.91
2022-09-20T03:44:04.886Z,93077.03
2022-09-20T03:45:48.495Z,93084.00
2022-09-20T03:47:24.192Z,93088.28
2022-09-20T03:49:01.804Z,93084.50
2022-09-20T03:50:36.502Z,93088.28
2022-09-20T03:52:09.714Z,93086.91
2022-09-20T03:53:41.319Z,93094.63
2022-09-20T03:55:15.544Z,93094.94
2022-09-20T03:56:59.525Z,93079.34
2022-09-20T03:58:47.044Z,93080.47
2022-09-20T04:00:34.029Z,93073.19
2022-09-20T04:02:26.209Z,93079.16
2022-09-20T04:04:00.922Z,93071.13
2022-09-20T04:05:36.965Z,93083.19
2022-09-20T04:07:20.942Z,93086.44
2022-09-20T04:08:52.602Z,93081.97
2022-09-20T04:10:25.581Z,93087.63
2022-09-20T04:12:03.521Z,93088.72
2022-09-20T04:13:44.685Z,93091.91
2022-09-20T04:15:19.052Z,93089.50
2022-09-20T04:17:11.976Z,93094.63
2022-09-20T04:18:57.061Z,93094.41
2022-09-20T04:20:28.603Z,93096.66
2022-09-20T04:22:00.539Z,93095.94
2022-09-20T04:23:35.283Z,93095.72
2022-09-20T04:25:10.169Z,93104.31
2022-09-20T04:26:44.370Z,93107.78
2022-09-20T04:28:18.444Z,93108.31
2022-09-20T04:29:54.295Z,93110.41
2022-09-20T04:31:44.156Z,93122.22
2022-09-20T04:33:20.766Z,93110.34
2022-09-20T04:35:29.618Z,93115.69
2022-09-20T04:37:03.993Z,93115.69
2022-09-20T04:38:36.003Z,93117.56
2022-09-20T04:40:25.906Z,93119.19
2022-09-20T04:42:16.136Z,93119.63
2022-09-20T04:43:53.843Z,93123.59
2022-09-20T04:45:51.850Z,93127.59
2022-09-20T04:47:36.588Z,93135.06
2022-09-20T04:49:19.334Z,93126.94
2022-09-20T04:51:02.115Z,93132.38
2022-09-20T04:52:52.151Z,93131.38
2022-09-20T04:54:44.397Z,93135.19
2022-09-20T04:56:36.212Z,93134.75
2022-09-20T04:58:27.010Z,93133.44
2022-09-20T05:00:04.463Z,93136.19
2022-09-20T05:01:36.144Z,93139.19
2022-09-20T05:03:26.629Z,93129.88
2022-09-20T05:04:58.217Z,93140.34
2022-09-20T05:06:30.222Z,93136.56
2022-09-20T05:08:01.767Z,93133.59
2022-09-20T05:09:50.483Z,93129.03
2022-09-20T05:11:30.785Z,93139.16
2022-09-20T05:13:05.452Z,93132.38
2022-09-20T05:14:44.855Z,93127.19
2022-09-20T05:16:24.988Z,93130.16
2022-09-20T05:18:05.935Z,93123.16
2022-09-20T05:19:43.764Z,93121.63
2022-09-20T05:21:41.799Z,93122.97
2022-09-20T05:23:28.804Z,93120.81
2022-09-20T05:25:07.463Z,93127.25
2022-09-20T05:41:32.264Z,93129.38
2022-09-20T05:43:13.624Z,93135.47
2022-09-20T05:44:55.323Z,93130.59
2022-09-20T05:46:33.318Z,93126.69
2022-09-20T05:48:04.903Z,93130.38
2022-09-20T05:49:40.036Z,93122.00
2022-09-20T05:51:15.480Z,93124.38
2022-09-20T05:53:07.539Z,93122.19
2022-09-20T05:54:42.447Z,93130.31
2022-09-20T05:56:28.086Z,93127.13
2022-09-20T05:58:01.489Z,93122.56
2022-09-20T05:59:52.041Z,93122.53
2022-09-20T06:01:26.219Z,93119.50
2022-09-20T06:03:17.558Z,93132.84
2022-09-20T06:05:09.383Z,93133.13
2022-09-20T06:07:06.927Z,93138.34
2022-09-20T06:08:58.044Z,93132.78
2022-09-20T06:10:48.930Z,93143.25
2022-09-20T06:12:31.480Z,93143.06
2022-09-20T06:14:11.623Z,93134.28
2022-09-20T06:15:45.693Z,93134.06
2022-09-20T06:17:24.597Z,93130.88
2022-09-20T06:19:17.421Z,93135.25
2022-09-20T06:20:49.044Z,93137.16
2022-09-20T06:22:25.193Z,93129.66
2022-09-20T06:23:57.290Z,93131.38
2022-09-20T06:25:37.997Z,93136.59
2022-09-20T06:27:19.629Z,93131.06
2022-09-20T06:28:56.379Z,93129.09
2022-09-20T06:30:31.694Z,93134.97
2022-09-20T06:32:03.599Z,93129.66
2022-09-20T06:33:39.793Z,93129.16
2022-09-20T06:35:12.180Z,93135.47
2022-09-20T06:37:04.439Z,93133.41
2022-09-20T06:39:00.954Z,93135.53
2022-09-20T06:41:07.353Z,93137.50
2022-09-20T06:42:39.358Z,93141.28
2022-09-20T06:44:11.173Z,93136.09
2022-09-20T06:45:45.625Z,93136.81
2022-09-20T06:47:17.468Z,93141.38
2022-09-20T06:48:50.486Z,93139.00
2022-09-20T06:50:22.876Z,93138.66
2022-09-20T06:51:55.979Z,93133.56
2022-09-20T06:53:30.280Z,93134.03
2022-09-20T06:55:07.506Z,93140.03
2022-09-20T06:56:39.141Z,93138.00
2022-09-20T06:58:10.996Z,93139.72
2022-09-20T06:59:42.792Z,93139.88
2022-09-20T07:01:16.172Z,93141.13
2022-09-20T07:02:51.782Z,93147.38
2022-09-20T07:04:29.500Z,93148.16
2022-09-20T07:06:01.148Z,93150.59
2022-09-20T07:07:32.826Z,93148.09
2022-09-20T07:09:04.866Z,93152.66
2022-09-20T07:10:36.653Z,93150.47
2022-09-20T07:12:11.250Z,93154.19
2022-09-20T07:13:43.899Z,93156.03
2022-09-20T07:15:17.177Z,93160.75
2022-09-20T07:16:51.430Z,93150.91
2022-09-20T07:18:23.360Z,93151.34
2022-09-20T07:19:57.359Z,93155.16
2022-09-20T07:21:28.990Z,93157.31
2022-09-20T07:23:00.474Z,93150.75
2022-09-20T07:24:32.750Z,93159.25
2022-09-20T07:26:04.386Z,93154.91
2022-09-20T07:27:36.358Z,93154.56
2022-09-20T07:29:08.559Z,93148.63
2022-09-20T07:30:40.822Z,93154.25
2022-09-20T07:32:12.822Z,93142.94
2022-09-20T07:33:45.019Z,93147.97
2022-09-20T07:35:16.680Z,93152.03
2022-09-20T07:36:48.450Z,93137.94
2022-09-20T07:38:20.253Z,93140.59
2022-09-20T07:39:52.400Z,93137.44
2022-09-20T07:41:24.173Z,93142.44
2022-09-20T07:42:56.742Z,93141.75
2022-09-20T07:44:28.677Z,93137.69
2022-09-20T07:46:00.608Z,93135.44
2022-09-20T07:47:33.577Z,93134.97
2022-09-20T07:49:06.896Z,93141.19
2022-09-20T07:50:38.522Z,93138.47
2022-09-20T07:52:11.568Z,93137.72
2022-09-20T07:53:43.652Z,93147.25
2022-09-20T07:55:15.590Z,93144.00
2022-09-20T07:56:47.350Z,93139.03
2022-09-20T07:58:19.117Z,93134.44
2022-09-20T07:59:50.848Z,93146.91
2022-09-20T08:01:22.911Z,93138.16
2022-09-20T08:02:59.239Z,93135.38
2022-09-20T08:04:30.815Z,93131.69
2022-09-20T08:06:03.646Z,93136.84
2022-09-20T08:07:35.324Z,93138.97
2022-09-20T08:09:10.897Z,93134.25
2022-09-20T08:10:43.231Z,93140.28
2022-09-20T08:14:08.358Z,93140.59
2022-09-20T08:15:41.071Z,93143.84
2022-09-20T08:17:13.011Z,93154.31
2022-09-20T08:18:55.941Z,93139.63
2022-09-20T08:20:27.636Z,93139.63
2022-09-20T08:21:59.398Z,93131.97
2022-09-20T08:23:31.503Z,93133.66
2022-09-20T08:25:03.077Z,93129.56
2022-09-20T08:26:36.169Z,93141.13
2022-09-20T08:28:07.708Z,93133.06
2022-09-20T08:29:40.496Z,93129.31
2022-09-20T08:31:16.015Z,93120.09
2022-09-20T08:32:47.720Z,93116.22
2022-09-20T08:34:19.348Z,93117.09
2022-09-20T08:35:50.987Z,93111.72
2022-09-20T08:37:22.671Z,93119.03
2022-09-20T08:40:45.937Z,93117.88
2022-09-20T08:42:36.766Z,93119.09
2022-09-20T08:44:17.113Z,93116.56
2022-09-20T08:45:48.772Z,93115.03
2022-09-20T08:47:29.650Z,93115.38
2022-09-20T08:49:01.248Z,93106.31
2022-09-20T08:50:35.246Z,93106.53
2022-09-20T08:52:10.374Z,93107.88
2022-09-20T08:54:07.637Z,93105.66
2022-09-20T08:55:41.884Z,93103.66
2022-09-20T08:57:15.160Z,93105.91
2022-09-20T08:58:46.974Z,93093.38
2022-09-20T09:00:22.500Z,93096.97
2022-09-20T09:01:54.306Z,93100.56
2022-09-20T09:03:25.855Z,93100.28
2022-09-20T09:04:57.357Z,93096.84
2022-09-20T09:06:29.425Z,93100.56
2022-09-20T09:08:04.509Z,93100.34
2022-09-20T09:09:37.674Z,93095.34
2022-09-20T09:11:16.007Z,93089.69
2022-09-20T09:12:49.055Z,93085.53
2022-09-20T09:14:49.357Z,93088.81
2022-09-20T09:16:27.212Z,93082.81
2022-09-20T09:18:01.869Z,93085.47
2022-09-20T09:19:43.312Z,93069.75
2022-09-20T09:21:24.845Z,93074.25
2022-09-20T09:23:00.000Z,93062.94
2022-09-20T09:24:31.830Z,93064.63
2022-09-20T09:26:04.431Z,93073.28
2022-09-20T09:27:36.856Z,93071.56
2022-09-20T09:29:09.522Z,93069.81
2022-09-20T09:30:41.994Z,93070.41
2022-09-20T09:32:40.161Z,93063.19
2022-09-20T09:34:23.686Z,93066.09
2022-09-20T09:35:59.351Z,93063.22
2022-09-20T09:37:31.727Z,93064.56
2022-09-20T09:39:16.973Z,93057.41
2022-09-20T09:40:55.399Z,93063.03
2022-09-20T09:42:29.147Z,93064.03
2022-09-20T09:44:10.020Z,93060.34
2022-09-20T09:45:41.900Z,93064.81
2022-09-20T09:47:23.362Z,93063.84
2022-09-20T09:49:10.701Z,93062.72
2022-09-20T09:50:44.125Z,93060.09
2022-09-20T09:52:21.356Z,93056.97
2022-09-20T09:53:55.247Z,93058.06
2022-09-20T09:55:43.578Z,93053.19
2022-09-20T09:57:19.420Z,93063.59
2022-09-20T09:59:08.002Z,93055.59
2022-09-20T10:00:43.987Z,93050.66
2022-09-20T10:02:48.466Z,93058.72
2022-09-20T10:04:22.799Z,93044.63
2022-09-20T10:06:00.837Z,93045.84
2022-09-20T10:07:45.075Z,93050.91
2022-09-20T10:09:17.542Z,93051.69
2022-09-20T10:10:51.272Z,93047.81
2022-09-20T10:12:33.091Z,93052.13
2022-09-20T10:14:19.686Z,93048.72
2022-09-20T10:15:54.804Z,93049.28
2022-09-20T10:17:42.660Z,93057.06
2022-09-20T10:19:32.976Z,93054.25
2022-09-20T10:21:08.272Z,93046.47
2022-09-20T10:23:29.903Z,93057.34
2022-09-20T10:24:51.688Z,93057.06
2022-09-20T10:26:45.475Z,93056.00
2022-09-20T10:28:32.482Z,93048.38
2022-09-20T10:30:08.665Z,93044.59
2022-09-20T10:31:57.670Z,93040.78
2022-09-20T10:33:29.257Z,93045.56
2022-09-20T10:35:07.139Z,93040.50
2022-09-20T10:36:47.962Z,93057.63
2022-09-20T10:38:28.181Z,93056.97
2022-09-20T10:40:15.278Z,93065.94
2022-09-20T10:42:14.567Z,93064.53
2022-09-20T10:44:05.578Z,93069.38
2022-09-20T10:46:27.936Z,93065.91
2022-09-20T10:47:40.708Z,93056.00
2022-09-20T10:49:27.411Z,93055.50
2022-09-20T10:51:00.751Z,93059.69
2022-09-20T10:52:38.803Z,93049.97
2022-09-20T10:54:14.458Z,93049.31
2022-09-20T10:55:48.767Z,93052.66
2022-09-20T10:57:20.284Z,93054.00
2022-09-20T10:59:11.142Z,93050.25
2022-09-20T11:00:55.005Z,93057.75
2022-09-20T11:02:36.516Z,93060.03
2022-09-20T11:04:26.577Z,93058.81
2022-09-20T11:05:58.205Z,93050.50
2022-09-20T11:07:48.784Z,93048.63
2022-09-20T11:09:21.375Z,93046.00
2022-09-20T11:10:56.124Z,93049.53
2022-09-20T11:12:33.575Z,93042.66
2022-09-20T11:14:06.636Z,93042.19
2022-09-20T11:15:43.573Z,93041.91
2022-09-20T11:17:41.688Z,93043.19
2022-09-20T11:19:19.465Z,93042.16
2022-09-20T11:20:57.682Z,93036.84
2022-09-20T11:22:32.806Z,93038.53
2022-09-20T11:24:21.560Z,93035.50
2022-09-20T11:25:54.601Z,93032.47
2022-09-20T11:27:49.538Z,93032.53
2022-09-20T11:29:40.284Z,93035.75
2022-09-20T11:31:13.176Z,93034.25
2022-09-20T11:32:53.719Z,93029.16
2022-09-20T11:34:37.405Z,93026.38
2022-09-20T11:36:11.248Z,93022.03
2022-09-20T11:37:43.938Z,93015.69
2022-09-20T11:39:18.657Z,93023.59
2022-09-20T11:41:16.647Z,93020.84
2022-09-20T11:42:50.612Z,93023.47
2022-09-20T11:44:22.107Z,93024.44
2022-09-20T11:45:54.517Z,93019.22
2022-09-20T11:47:53.396Z,93012.88
2022-09-20T11:49:27.187Z,93017.47
2022-09-20T11:50:59.058Z,93009.53
2022-09-20T11:52:53.370Z,93009.47
2022-09-20T11:54:29.339Z,93011.81
2022-09-20T11:56:06.413Z,93014.63
2022-09-20T11:57:38.011Z,93009.84
2022-09-20T11:59:21.153Z,93014.34
2022-09-20T12:00:54.644Z,93006.31
2022-09-20T12:02:42.136Z,93008.88
2022-09-20T12:04:35.787Z,93010.59
2022-09-20T12:06:08.528Z,93003.44
2022-09-20T12:07:41.925Z,93002.28
2022-09-20T12:09:23.707Z,92994.00
2022-09-20T12:10:56.082Z,92993.91
2022-09-20T12:12:30.693Z,92991.59
2022-09-20T12:14:09.459Z,92983.66
2022-09-20T12:15:41.403Z,92989.22
2022-09-20T12:17:32.973Z,92989.41
2022-09-20T12:19:07.595Z,92988.06
2022-09-20T12:20:39.162Z,92990.25
2022-09-20T12:22:15.785Z,92994.38
2022-09-20T12:24:00.177Z,92993.31
2022-09-20T12:25:35.342Z,92984.38
2022-09-20T12:27:24.139Z,92990.59
2022-09-20T12:28:56.538Z,92987.16
2022-09-20T12:30:29.084Z,92991.09
2022-09-20T12:32:01.197Z,92986.41
2022-09-20T12:33:52.810Z,92989.19
2022-09-20T12:35:36.753Z,92995.56
2022-09-20T12:37:10.376Z,92993.69
2022-09-20T12:38:45.846Z,92986.25
2022-09-20T12:40:19.614Z,92974.13
2022-09-20T12:41:52.360Z,92982.81
2022-09-20T12:43:24.660Z,92989.78
2022-09-20T12:45:00.960Z,92983.44
2022-09-20T12:46:43.583Z,92988.31
2022-09-20T12:48:18.217Z,92992.81
2022-09-20T12:50:09.157Z,92991.53
2022-09-20T12:51:59.460Z,92989.19
2022-09-20T12:53:31.158Z,92992.44
2022-09-20T12:55:08.950Z,92984.22
2022-09-20T12:56:46.348Z,92981.50
2022-09-20T12:58:28.969Z,92981.22
2022-09-20T13:00:02.915Z,92986.28
2022-09-20T13:01:35.888Z,92983.03
2022-09-20T13:03:32.082Z,92982.53
2022-09-20T13:05:03.889Z,92976.25
2022-09-20T13:06:35.742Z,92987.97
2022-09-20T13:08:13.527Z,92984.03
2022-09-20T13:09:45.366Z,92988.38
2022-09-20T13:11:18.923Z,92979.81
2022-09-20T13:12:54.557Z,92980.34
2022-09-20T13:14:26.397Z,92983.13
2022-09-20T13:15:58.034Z,92976.84
2022-09-20T13:17:31.305Z,92984.66
2022-09-20T13:19:29.636Z,92973.56
2022-09-20T13:21:06.638Z,92970.56
2022-09-20T13:22:43.780Z,92967.63
2022-09-20T13:24:16.942Z,92973.09
2022-09-20T13:25:48.987Z,92964.47
2022-09-20T13:27:48.433Z,92974.59
2022-09-20T13:29:31.049Z,92966.88
2022-09-20T13:31:21.231Z,92974.09
2022-09-20T13:32:53.581Z,92968.63
2022-09-20T13:34:25.934Z,92967.13
2022-09-20T13:35:58.802Z,92965.13
2022-09-20T13:37:31.233Z,92965.09
2022-09-20T13:39:03.552Z,92972.78
2022-09-20T13:40:36.123Z,92968.38
2022-09-20T13:42:09.289Z,92970.72
2022-09-20T13:43:41.756Z,92969.19
2022-09-20T13:45:14.093Z,92966.84
2022-09-20T13:46:45.695Z,92960.22
2022-09-20T13:48:17.271Z,92963.78
2022-09-20T13:49:49.394Z,92961.47
2022-09-20T13:51:24.022Z,92962.44
2022-09-20T13:53:02.184Z,92958.56
2022-09-20T13:54:34.150Z,92964.88
2022-09-20T13:56:10.221Z,92955.50
2022-09-20T13:57:42.683Z,92958.19
2022-09-20T13:59:19.689Z,92960.28
2022-09-20T14:00:53.076Z,92954.56
2022-09-20T14:02:31.780Z,92960.81
2022-09-20T14:04:24.471Z,92962.00
2022-09-20T14:06:00.434Z,92966.47
2022-09-20T14:07:32.623Z,92962.88
2022-09-20T14:09:10.435Z,92964.44
2022-09-20T14:10:44.018Z,92953.25
2022-09-20T14:12:15.567Z,92960.75
2022-09-20T14:13:48.273Z,92967.47
2022-09-20T14:15:20.354Z,92957.28
2022-09-20T14:16:52.220Z,92957.28
2022-09-20T14:18:24.713Z,92960.00
2022-09-20T14:19:57.532Z,92954.97
2022-09-20T14:21:31.837Z,92963.53
2022-09-20T14:23:04.264Z,92959.22
2022-09-20T14:24:37.356Z,92961.88
2022-09-20T14:26:22.572Z,92961.03
2022-09-20T14:28:06.905Z,92961.72
2022-09-20T14:29:42.561Z,92955.47
2022-09-20T14:31:26.672Z,92956.19
2022-09-20T14:32:58.397Z,92952.94
2022-09-20T14:34:30.048Z,92958.72
2022-09-20T14:36:02.039Z,92955.56
2022-09-20T14:37:35.022Z,92966.03
2022-09-20T14:39:11.629Z,92971.09
2022-09-20T14:40:44.166Z,92955.81
2022-09-20T14:42:20.351Z,92966.28
2022-09-20T14:43:55.764Z,92970.38
2022-09-20T14:45:37.896Z,92958.47
2022-09-20T14:47:15.816Z,92952.91
2022-09-20T14:48:47.478Z,92962.97
2022-09-20T14:50:29.167Z,92954.78
2022-09-20T14:52:19.417Z,92954.31
2022-09-20T14:54:15.388Z,92956.50
2022-09-20T14:56:00.320Z,92951.69
2022-09-20T14:57:32.899Z,92952.38
2022-09-20T14:59:06.651Z,92957.75
2022-09-20T15:01:01.991Z,92955.34
2022-09-20T15:02:34.507Z,92957.63
2022-09-20T15:04:07.293Z,92959.91
2022-09-20T15:05:39.904Z,92953.59
2022-09-20T15:07:14.822Z,92961.34
2022-09-20T15:08:47.942Z,92954.28
2022-09-20T15:10:19.875Z,92959.53
2022-09-20T15:12:04.348Z,92959.72
2022-09-20T15:13:39.608Z,92948.63
2022-09-20T15:15:15.471Z,92959.34
2022-09-20T15:16:47.666Z,92955.28
2022-09-20T15:18:23.451Z,92953.91
2022-09-20T15:19:55.028Z,92959.97
2022-09-20T15:21:26.978Z,92960.28
2022-09-20T15:22:59.000Z,92962.13
2022-09-20T15:24:30.660Z,92958.91
2022-09-20T15:26:02.341Z,92961.09
2022-09-20T15:27:34.051Z,92958.31
2022-09-20T15:29:09.193Z,92965.59
2022-09-20T15:30:41.234Z,92956.91
2022-09-20T15:32:17.166Z,92960.44
2022-09-20T15:33:48.819Z,92963.16
2022-09-20T15:35:20.711Z,92955.28
2022-09-20T15:36:54.078Z,92955.94
2022-09-20T15:38:27.222Z,92959.47
2022-09-20T15:39:59.711Z,92955.94
2022-09-20T15:41:32.702Z,92969.13
2022-09-20T15:43:04.895Z,92963.31
2022-09-20T15:44:36.844Z,92960.59
2022-09-20T15:46:21.890Z,92960.50
2022-09-20T15:47:57.816Z,92961.94
2022-09-20T15:49:31.287Z,92972.22
2022-09-20T15:51:03.945Z,92967.03
2022-09-20T15:52:36.661Z,92972.03
2022-09-20T15:54:09.756Z,92969.31
2022-09-20T15:55:41.318Z,92973.22
2022-09-20T15:57:13.212Z,92982.22
2022-09-20T15:58:59.488Z,92978.72
2022-09-20T16:00:31.507Z,92976.28
2022-09-20T16:02:03.670Z,92973.47
2022-09-20T16:03:35.932Z,92984.59
2022-09-20T16:05:10.182Z,92981.38
2022-09-20T16:06:42.923Z,92974.19
2022-09-20T16:08:14.554Z,92979.69
2022-09-20T16:09:46.265Z,92978.19
2022-09-20T16:11:22.848Z,92983.34
2022-09-20T16:12:54.758Z,92987.41
2022-09-20T16:14:26.370Z,92984.63
2022-09-20T16:15:58.404Z,92983.81
2022-09-20T16:17:48.462Z,92980.66
2022-09-20T16:19:24.184Z,92982.13
2022-09-20T16:20:55.792Z,92985.13
2022-09-20T16:22:28.205Z,92979.13
2022-09-20T16:24:00.926Z,92990.59
2022-09-20T16:25:32.493Z,92984.78
2022-09-20T16:27:04.955Z,92990.84
2022-09-20T16:28:36.450Z,92989.53
2022-09-20T16:30:08.360Z,92983.63
2022-09-20T16:31:48.201Z,92987.41
2022-09-20T16:33:20.138Z,92988.78
2022-09-20T16:34:54.917Z,92996.91
2022-09-20T16:36:27.713Z,92987.19
2022-09-20T16:37:59.472Z,92994.28
2022-09-20T16:39:31.238Z,92989.78
2022-09-20T16:41:03.720Z,92990.66
2022-09-20T16:42:35.335Z,93000.81
2022-09-20T16:44:07.221Z,93008.88
2022-09-20T16:45:39.055Z,93003.22
2022-09-20T16:47:11.786Z,93004.56
2022-09-20T16:48:43.973Z,93008.47
2022-09-20T16:50:15.722Z,93005.72
2022-09-20T16:51:47.524Z,93012.34
2022-09-20T16:53:19.208Z,93011.28
2022-09-20T16:54:50.831Z,93012.28
2022-09-20T16:56:23.421Z,93012.47
2022-09-20T16:57:55.294Z,93020.03
2022-09-20T16:59:26.988Z,93025.16
2022-09-20T17:01:05.385Z,93035.53
2022-09-20T17:02:36.970Z,93031.56
2022-09-20T17:04:08.893Z,93037.00
2022-09-20T17:05:42.408Z,93023.97
2022-09-20T17:07:14.035Z,93023.38
2022-09-20T17:08:47.579Z,93031.50
2022-09-20T17:10:19.663Z,93026.09
2022-09-20T17:11:52.074Z,93034.22
2022-09-20T17:13:26.260Z,93032.78
2022-09-20T17:14:57.908Z,93042.81
2022-09-20T17:16:30.188Z,93038.88
2022-09-20T17:18:05.717Z,93034.59
2022-09-20T17:19:37.329Z,93032.97
2022-09-20T17:21:09.770Z,93037.75
2022-09-20T17:22:42.880Z,93040.06
2022-09-20T17:24:14.393Z,93042.66
2022-09-20T17:25:48.252Z,93043.13
2022-09-20T17:27:19.767Z,93048.88
2022-09-20T17:28:52.029Z,93044.56
2022-09-20T17:30:23.839Z,93049.88
2022-09-20T17:31:59.863Z,93040.34
2022-09-20T17:33:34.778Z,93047.97
2022-09-20T17:35:07.018Z,93051.34
2022-09-20T17:36:42.231Z,93044.34
2022-09-20T17:38:13.801Z,93045.63
2022-09-20T17:39:46.190Z,93044.09
2022-09-20T17:41:18.485Z,93053.19
2022-09-20T17:42:49.956Z,93054.28
2022-09-20T17:44:21.672Z,93049.53
2022-09-20T17:45:53.245Z,93054.13
2022-09-20T17:47:25.308Z,93056.03
2022-09-20T17:49:01.299Z,93057.00
2022-09-20T17:50:32.889Z,93050.53
2022-09-20T17:52:08.199Z,93071.19
2022-09-20T17:53:39.790Z,93059.44
2022-09-20T17:55:11.466Z,93065.47
2022-09-20T17:56:44.090Z,93066.13
2022-09-20T17:58:15.669Z,93066.63
2022-09-20T17:59:47.465Z,93081.06
2022-09-20T18:01:20.535Z,93075.66
2022-09-20T18:02:52.623Z,93076.16
2022-09-20T18:04:25.178Z,93074.09
2022-09-20T18:05:56.664Z,93079.00
2022-09-20T18:07:28.484Z,93071.09
2022-09-20T18:09:03.701Z,93071.41
2022-09-20T18:10:35.244Z,93078.38
2022-09-20T18:12:07.299Z,93076.00
2022-09-20T18:13:39.083Z,93074.41
2022-09-20T18:15:10.922Z,93064.28
2022-09-20T18:16:44.330Z,93072.38
2022-09-20T18:18:15.822Z,93067.59
2022-09-20T18:19:47.426Z,93065.53
2022-09-20T18:21:21.353Z,93075.38
2022-09-20T18:22:53.032Z,93074.91
2022-09-20T18:24:24.640Z,93073.13
2022-09-20T18:26:14.808Z,93073.94
2022-09-20T18:27:46.873Z,93077.41
2022-09-20T18:29:18.500Z,93078.53
2022-09-20T18:30:59.548Z,93076.59
2022-09-20T18:32:31.537Z,93079.13
2022-09-20T18:34:03.842Z,93080.06
2022-09-20T18:35:35.641Z,93081.03
2022-09-20T18:37:13.816Z,93083.22
2022-09-20T18:38:46.299Z,93088.28
2022-09-20T18:40:17.999Z,93090.03
2022-09-20T18:41:50.653Z,93087.16
2022-09-20T18:43:23.237Z,93088.25
2022-09-20T18:44:54.802Z,93093.00
2022-09-20T18:46:27.180Z,93092.81
2022-09-20T18:47:59.752Z,93092.31
2022-09-20T18:49:31.565Z,93088.03
2022-09-20T18:51:04.227Z,93090.56
2022-09-20T18:52:39.454Z,93090.34
2022-09-20T18:54:11.547Z,93093.16
2022-09-20T18:55:44.008Z,93092.97
2022-09-20T18:57:15.778Z,93088.84
2022-09-20T18:58:47.668Z,93086.59
2022-09-20T19:00:19.416Z,93091.03
2022-09-20T19:01:52.822Z,93086.72
2022-09-20T19:03:26.319Z,93083.06
2022-09-20T19:05:15.460Z,93086.19
2022-09-20T19:06:52.776Z,93084.72
2022-09-20T19:08:28.889Z,93084.56
2022-09-20T19:10:00.366Z,93076.66
2022-09-20T19:11:37.464Z,93089.50
2022-09-20T19:13:14.582Z,93086.50
2022-09-20T19:14:52.610Z,93081.31
2022-09-20T19:16:24.259Z,93081.31
2022-09-20T19:18:14.717Z,93075.44
2022-09-20T19:20:13.015Z,93075.44
2022-09-20T19:21:56.799Z,93073.84
2022-09-20T19:23:46.851Z,93076.22
2022-09-20T19:25:40.916Z,93079.41
2022-09-20T19:27:12.931Z,93081.00
2022-09-20T19:28:44.644Z,93079.88
2022-09-20T19:30:16.511Z,93084.16
2022-09-20T19:31:49.290Z,93084.66
2022-09-20T19:33:21.064Z,93078.78
2022-09-20T19:34:53.875Z,93087.50
2022-09-20T19:36:26.684Z,93085.81
2022-09-20T19:38:04.200Z,93089.88
2022-09-20T19:39:39.201Z,93096.94